createdAt,value
2022-11-15T00:00:43.438Z,100647.38
2022-11-15T00:02:05.810Z,100636.94
2022-11-15T00:03:28.876Z,100640.25
2022-11-15T00:04:50.865Z,100634.09
2022-11-15T00:06:12.364Z,100631.25
2022-11-15T00:07:54.692Z,100630.59
2022-11-15T00:09:15.742Z,100632.09
2022-11-15T00:10:36.606Z,100636.75
2022-11-15T00:11:58.056Z,100637.59
2022-11-15T00:13:18.705Z,100635.91
2022-11-15T00:14:40.410Z,100632.44
2022-11-15T00:16:02.790Z,100640.41
2022-11-15T00:17:24.507Z,100644.88
2022-11-15T00:18:50.700Z,100637.09
2022-11-15T00:20:12.616Z,100644.06
2022-11-15T00:21:34.096Z,100672.44
2022-11-15T00:22:54.808Z,100633.44
2022-11-15T00:24:16.456Z,100628.78
2022-11-15T00:25:37.559Z,100634.94
2022-11-15T00:26:59.725Z,100636.38
2022-11-15T00:28:21.567Z,100635.22
2022-11-15T00:29:44.254Z,100634.03
2022-11-15T00:31:08.173Z,100638.81
2022-11-15T00:32:33.523Z,100637.44
2022-11-15T00:33:56.710Z,100648.34
2022-11-15T00:35:17.967Z,100646.16
2022-11-15T00:36:39.659Z,100640.28
2022-11-15T00:38:00.524Z,100642.44
2022-11-15T00:39:22.078Z,100635.72
2022-11-15T00:40:44.058Z,100631.72
2022-11-15T00:42:04.979Z,100639.13
2022-11-15T00:43:26.471Z,100632.66
2022-11-15T00:44:46.901Z,100624.31
2022-11-15T00:46:09.456Z,100629.25
2022-11-15T00:47:30.120Z,100624.59
2022-11-15T00:48:51.848Z,100626.88
2022-11-15T00:50:15.316Z,100627.91
2022-11-15T00:51:37.977Z,100632.66
2022-11-15T00:52:59.511Z,100631.63
2022-11-15T00:54:21.246Z,100631.47
2022-11-15T00:55:42.798Z,100630.66
2022-11-15T00:57:04.883Z,100632.28
2022-11-15T00:58:26.392Z,100636.78
2022-11-15T00:59:47.834Z,100639.28
2022-11-15T01:01:09.971Z,100638.25
2022-11-15T01:02:31.856Z,100637.22
2022-11-15T01:03:52.468Z,100626.44
2022-11-15T01:05:15.294Z,100627.06
2022-11-15T01:06:36.661Z,100631.38
2022-11-15T01:07:57.372Z,100631.38
2022-11-15T01:09:19.039Z,100627.72
2022-11-15T01:10:39.477Z,100630.38
2022-11-15T01:12:01.114Z,100628.53
2022-11-15T01:13:21.664Z,100627.72
2022-11-15T01:14:43.283Z,100626.72
2022-11-15T01:16:07.843Z,100632.84
2022-11-15T01:17:29.393Z,100616.25
2022-11-15T01:18:51.241Z,100612.78
2022-11-15T01:20:14.132Z,100620.94
2022-11-15T01:21:35.840Z,100618.63
2022-11-15T01:22:57.453Z,100613.69
2022-11-15T01:24:18.938Z,100616.91
2022-11-15T01:25:39.546Z,100617.28
2022-11-15T01:27:01.156Z,100615.13
2022-11-15T01:28:21.473Z,100609.38
2022-11-15T01:29:43.583Z,100621.19
2022-11-15T01:31:07.597Z,100620.72
2022-11-15T01:32:29.134Z,100614.94
2022-11-15T01:33:50.306Z,100610.00
2022-11-15T01:35:11.956Z,100610.38
2022-11-15T01:36:34.783Z,100615.03
2022-11-15T01:37:55.283Z,100613.91
2022-11-15T01:39:17.653Z,100613.72
2022-11-15T01:40:39.074Z,100613.13
2022-11-15T01:42:00.724Z,100602.38
2022-11-15T01:43:23.191Z,100615.50
2022-11-15T01:44:48.261Z,100615.81
2022-11-15T01:46:26.070Z,100604.59
2022-11-15T01:47:49.812Z,100603.09
2022-11-15T01:49:16.671Z,100605.09
2022-11-15T01:50:37.225Z,100600.16
2022-11-15T01:52:02.875Z,100601.34
2022-11-15T01:53:27.114Z,100600.22
2022-11-15T01:54:50.058Z,100594.75
2022-11-15T01:56:15.512Z,100597.56
2022-11-15T01:57:37.566Z,100602.22
2022-11-15T01:59:03.257Z,100601.59
2022-11-15T02:00:24.862Z,100602.41
2022-11-15T02:01:46.701Z,100557.50
2022-11-15T02:03:08.518Z,100593.97
2022-11-15T02:04:30.483Z,100582.72
2022-11-15T02:05:53.062Z,100582.09
2022-11-15T02:07:18.786Z,100590.38
2022-11-15T02:08:39.707Z,100579.78
2022-11-15T02:10:06.366Z,100579.16
2022-11-15T02:11:27.425Z,100576.66
2022-11-15T02:12:50.412Z,100571.53
2022-11-15T02:14:12.731Z,100578.88
2022-11-15T02:15:42.526Z,100570.25
2022-11-15T02:17:10.885Z,100569.59
2022-11-15T02:18:36.209Z,100575.09
2022-11-15T02:20:33.190Z,100572.13
2022-11-15T02:22:10.133Z,100582.56
2022-11-15T02:24:05.524Z,100582.75
2022-11-15T02:25:39.802Z,100573.13
2022-11-15T02:27:51.831Z,100580.44
2022-11-15T02:29:21.389Z,100575.31
2022-11-15T02:30:49.870Z,100577.97
2022-11-15T02:32:16.896Z,100572.81
2022-11-15T02:33:46.906Z,100562.56
2022-11-15T02:35:16.920Z,100563.38
2022-11-15T02:36:45.764Z,100565.38
2022-11-15T02:38:12.981Z,100567.38
2022-11-15T02:39:42.080Z,100569.22
2022-11-15T02:41:08.420Z,100564.09
2022-11-15T02:42:52.948Z,100555.69
2022-11-15T02:44:22.435Z,100559.50
2022-11-15T02:45:49.360Z,100557.03
2022-11-15T02:47:16.962Z,100552.91
2022-11-15T02:48:38.021Z,100560.22
2022-11-15T02:50:02.940Z,100555.25
2022-11-15T02:51:23.778Z,100556.44
2022-11-15T02:52:48.026Z,100548.00
2022-11-15T02:54:12.311Z,100544.06
2022-11-15T02:55:36.559Z,100547.69
2022-11-15T02:57:03.100Z,100544.38
2022-11-15T02:58:50.998Z,100551.72
2022-11-15T03:00:17.117Z,100547.59
2022-11-15T03:01:54.439Z,100550.41
2022-11-15T03:03:31.348Z,100548.78
2022-11-15T03:04:57.072Z,100555.06
2022-11-15T03:06:26.984Z,100558.72
2022-11-15T03:08:01.871Z,100552.75
2022-11-15T03:09:36.145Z,100552.75
2022-11-15T03:11:05.046Z,100552.75
2022-11-15T03:12:30.247Z,100559.69
2022-11-15T03:13:59.478Z,100552.94
2022-11-15T03:15:25.957Z,100552.41
2022-11-15T03:16:52.081Z,100549.56
2022-11-15T03:18:21.626Z,100549.09
2022-11-15T03:19:46.191Z,100546.63
2022-11-15T03:21:10.249Z,100547.09
2022-11-15T03:22:35.900Z,100553.41
2022-11-15T03:24:00.493Z,100550.78
2022-11-15T03:25:25.695Z,100555.22
2022-11-15T03:26:50.189Z,100556.06
2022-11-15T03:28:16.112Z,100552.41
2022-11-15T03:29:41.194Z,100556.06
2022-11-15T03:31:24.582Z,100545.47
2022-11-15T03:32:49.872Z,100542.81
2022-11-15T03:34:17.933Z,100539.16
2022-11-15T03:35:42.675Z,100541.81
2022-11-15T03:37:06.139Z,100538.31
2022-11-15T03:38:29.246Z,100545.28
2022-11-15T03:39:51.272Z,100540.97
2022-11-15T03:41:19.291Z,100544.44
2022-11-15T03:42:48.981Z,100539.16
2022-11-15T03:44:17.556Z,100540.97
2022-11-15T03:45:44.312Z,100537.34
2022-11-15T03:47:10.642Z,100532.22
2022-11-15T03:48:37.842Z,100537.34
2022-11-15T03:50:02.584Z,100533.84
2022-11-15T03:51:24.229Z,100535.53
2022-11-15T03:52:47.702Z,100533.66
2022-11-15T03:54:09.341Z,100537.34
2022-11-15T03:55:29.687Z,100539.81
2022-11-15T03:56:51.369Z,100545.09
2022-11-15T03:58:12.842Z,100542.28
2022-11-15T03:59:33.513Z,100536.97
2022-11-15T04:00:55.168Z,100544.75
2022-11-15T04:02:16.591Z,100551.06
2022-11-15T04:03:39.649Z,100554.53
2022-11-15T04:05:01.574Z,100559.81
2022-11-15T04:06:23.175Z,100548.41
2022-11-15T04:07:44.892Z,100553.72
2022-11-15T04:09:05.639Z,100548.25
2022-11-15T04:10:27.326Z,100551.72
2022-11-15T04:11:47.851Z,100548.06
2022-11-15T04:13:09.622Z,100549.69
2022-11-15T04:14:30.248Z,100543.41
2022-11-15T04:15:51.930Z,100544.88
2022-11-15T04:17:12.322Z,100537.09
2022-11-15T04:18:34.000Z,100542.03
2022-11-15T04:20:14.567Z,100541.06
2022-11-15T04:21:53.571Z,100538.88
2022-11-15T04:23:35.069Z,100529.72
2022-11-15T04:24:56.965Z,100526.72
2022-11-15T04:26:20.430Z,100535.16
2022-11-15T04:27:41.087Z,100540.09
2022-11-15T04:29:20.247Z,100553.03
2022-11-15T04:30:42.029Z,100525.47
2022-11-15T04:32:02.578Z,100536.19
2022-11-15T04:33:24.770Z,100543.81
2022-11-15T04:34:45.461Z,100533.38
2022-11-15T04:36:26.892Z,100530.03
2022-11-15T04:37:49.585Z,100546.44
2022-11-15T04:39:10.818Z,100541.28
2022-11-15T04:40:32.063Z,100543.25
2022-11-15T04:41:53.921Z,100535.47
2022-11-15T04:43:15.445Z,100544.50
2022-11-15T04:44:36.234Z,100548.66
2022-11-15T04:45:58.109Z,100549.31
2022-11-15T04:47:19.863Z,100556.06
2022-11-15T04:48:41.610Z,100550.94
2022-11-15T04:50:02.140Z,100552.91
2022-11-15T04:51:25.225Z,100546.56
2022-11-15T04:52:53.616Z,100542.72
2022-11-15T04:54:14.211Z,100545.03
2022-11-15T04:55:35.737Z,100551.78
2022-11-15T04:56:56.236Z,100549.78
2022-11-15T04:58:17.938Z,100540.63
2022-11-15T04:59:39.262Z,100537.81
2022-11-15T05:01:07.108Z,100548.25
2022-11-15T05:02:49.367Z,100539.09
2022-11-15T05:04:30.904Z,100538.72
2022-11-15T05:05:51.555Z,100540.38
2022-11-15T05:07:14.549Z,100541.84
2022-11-15T05:08:35.223Z,100533.69
2022-11-15T05:09:56.933Z,100536.00
2022-11-15T05:11:17.824Z,100536.63
2022-11-15T05:12:39.600Z,100546.91
2022-11-15T05:13:59.874Z,100540.56
2022-11-15T05:15:21.647Z,100541.22
2022-11-15T05:16:43.234Z,100547.34
2022-11-15T05:18:04.828Z,100542.84
2022-11-15T05:19:26.137Z,100535.53
2022-11-15T05:20:46.789Z,100527.38
2022-11-15T05:22:08.461Z,100540.66
2022-11-15T05:23:31.564Z,100528.22
2022-11-15T05:24:52.696Z,100522.91
2022-11-15T05:26:15.270Z,100524.91
2022-11-15T05:27:37.247Z,100521.25
2022-11-15T05:29:00.398Z,100524.91
2022-11-15T05:30:22.255Z,100535.53
2022-11-15T05:31:44.469Z,100531.88
2022-11-15T05:33:05.199Z,100530.88
2022-11-15T05:34:27.690Z,100536.84
2022-11-15T05:35:55.933Z,100540.09
2022-11-15T05:37:18.257Z,100533.81
2022-11-15T05:38:41.520Z,100535.25
2022-11-15T05:40:03.122Z,100517.59
2022-11-15T05:41:32.278Z,100525.09
2022-11-15T05:42:53.827Z,100530.03
2022-11-15T05:44:19.193Z,100523.72
2022-11-15T05:45:40.885Z,100527.84
2022-11-15T05:47:02.402Z,100522.50
2022-11-15T05:48:23.846Z,100525.63
2022-11-15T05:49:47.576Z,100525.44
2022-11-15T05:51:09.682Z,100525.25
2022-11-15T05:52:33.585Z,100529.41
2022-11-15T05:53:58.865Z,100539.84
2022-11-15T05:55:20.529Z,100538.63
2022-11-15T05:56:42.061Z,100533.97
2022-11-15T05:58:03.561Z,100531.13
2022-11-15T05:59:25.688Z,100535.44
2022-11-15T06:00:47.838Z,100526.81
2022-11-15T06:02:09.384Z,100536.09
2022-11-15T06:03:31.793Z,100537.72
2022-11-15T06:04:53.756Z,100530.56
2022-11-15T06:06:16.594Z,100533.03
2022-11-15T06:07:38.415Z,100538.16
2022-11-15T06:09:01.151Z,100533.69
2022-11-15T06:10:22.909Z,100539.81
2022-11-15T06:11:44.347Z,100534.31
2022-11-15T06:13:06.914Z,100539.28
2022-11-15T06:14:28.849Z,100544.41
2022-11-15T06:15:50.830Z,100545.66
2022-11-15T06:17:12.044Z,100543.66
2022-11-15T06:18:35.476Z,100546.75
2022-11-15T06:19:57.079Z,100545.72
2022-11-15T06:21:18.671Z,100540.88
2022-11-15T06:22:39.206Z,100542.53
2022-11-15T06:24:02.328Z,100545.19
2022-11-15T06:25:23.012Z,100543.78
2022-11-15T06:26:44.461Z,100546.25
2022-11-15T06:28:05.440Z,100545.06
2022-11-15T06:29:26.762Z,100550.84
2022-11-15T06:30:53.002Z,100539.19
2022-11-15T06:32:15.115Z,100548.44
2022-11-15T06:33:36.995Z,100543.78
2022-11-15T06:34:58.372Z,100550.53
2022-11-15T06:36:20.261Z,100553.00
2022-11-15T06:37:42.050Z,100542.75
2022-11-15T06:39:05.586Z,100543.00
2022-11-15T06:40:26.913Z,100550.59
2022-11-15T06:41:48.414Z,100548.59
2022-11-15T06:43:08.849Z,100553.72
2022-11-15T06:44:30.454Z,100544.53
2022-11-15T06:45:52.131Z,100553.13
2022-11-15T06:47:13.437Z,100552.16
2022-11-15T06:48:34.749Z,100555.44
2022-11-15T06:49:56.647Z,100556.06
2022-11-15T06:51:18.364Z,100555.69
2022-11-15T06:52:39.621Z,100556.13
2022-11-15T06:54:01.466Z,100549.81
2022-11-15T06:55:24.729Z,100558.44
2022-11-15T06:56:46.209Z,100559.88
2022-11-15T06:58:07.912Z,100557.84
2022-11-15T06:59:29.556Z,100550.69
2022-11-15T07:00:51.436Z,100556.47
2022-11-15T07:02:14.159Z,100560.38
2022-11-15T07:03:37.856Z,100560.00
2022-11-15T07:04:59.364Z,100555.69
2022-11-15T07:06:20.838Z,100555.09
2022-11-15T07:07:42.695Z,100560.25
2022-11-15T07:09:04.685Z,100561.72
2022-11-15T07:10:28.349Z,100567.47
2022-11-15T07:11:50.202Z,100572.63
2022-11-15T07:13:10.855Z,100579.38
2022-11-15T07:14:32.201Z,100574.88
2022-11-15T07:15:53.541Z,100576.34
2022-11-15T07:17:14.966Z,100569.16
2022-11-15T07:18:37.035Z,100583.13
2022-11-15T07:19:58.348Z,100573.31
2022-11-15T07:21:24.782Z,100577.41
2022-11-15T07:22:49.533Z,100578.25
2022-11-15T07:24:10.045Z,100578.25
2022-11-15T07:25:32.791Z,100582.53
2022-11-15T07:26:54.548Z,100584.00
2022-11-15T07:28:16.364Z,100583.81
2022-11-15T07:29:37.894Z,100582.78
2022-11-15T07:30:59.379Z,100588.94
2022-11-15T07:32:20.123Z,100587.13
2022-11-15T07:33:41.768Z,100581.78
2022-11-15T07:35:02.443Z,100580.56
2022-11-15T07:36:24.263Z,100581.41
2022-11-15T07:37:45.850Z,100569.72
2022-11-15T07:39:07.331Z,100576.72
2022-11-15T07:40:30.296Z,100592.69
2022-11-15T07:42:13.437Z,100585.34
2022-11-15T07:43:35.254Z,100585.78
2022-11-15T07:44:57.159Z,100581.25
2022-11-15T07:46:18.675Z,100586.38
2022-11-15T07:47:40.316Z,100584.56
2022-11-15T07:49:01.797Z,100582.56
2022-11-15T07:50:24.598Z,100575.41
2022-11-15T07:51:46.350Z,100580.53
2022-11-15T07:53:08.087Z,100572.34
2022-11-15T07:54:29.918Z,100570.31
2022-11-15T07:55:51.358Z,100562.50
2022-11-15T07:57:14.446Z,100572.16
2022-11-15T07:58:36.184Z,100573.78
2022-11-15T07:59:57.729Z,100577.28
2022-11-15T08:01:19.287Z,100577.91
2022-11-15T08:02:41.518Z,100583.88
2022-11-15T08:04:03.126Z,100574.03
2022-11-15T08:05:24.806Z,100573.63
2022-11-15T08:06:46.271Z,100572.63
2022-11-15T08:08:08.323Z,100574.25
2022-11-15T08:09:29.929Z,100573.28
2022-11-15T08:10:51.287Z,100574.91
2022-11-15T08:12:14.542Z,100565.88
2022-11-15T08:13:36.536Z,100581.06
2022-11-15T08:14:58.224Z,100574.91
2022-11-15T08:16:19.645Z,100570.59
2022-11-15T08:17:41.333Z,100570.59
2022-11-15T08:19:03.243Z,100565.47
2022-11-15T08:20:25.372Z,100567.69
2022-11-15T08:21:47.224Z,100577.13
2022-11-15T08:23:09.753Z,100571.78
2022-11-15T08:24:31.231Z,100569.97
2022-11-15T08:25:52.676Z,100574.25
2022-11-15T08:27:16.765Z,100569.56
2022-11-15T08:28:38.843Z,100570.41
2022-11-15T08:30:00.518Z,100563.84
2022-11-15T08:31:22.272Z,100567.78
2022-11-15T08:32:43.958Z,100569.22
2022-11-15T08:34:06.115Z,100574.97
2022-11-15T08:35:29.391Z,100566.59
2022-11-15T08:36:51.250Z,100567.22
2022-11-15T08:38:13.066Z,100575.22
2022-11-15T08:39:34.764Z,100572.00
2022-11-15T08:41:03.477Z,100568.28
2022-11-15T08:42:26.687Z,100577.13
2022-11-15T08:43:48.355Z,100578.56
2022-11-15T08:45:11.045Z,100574.47
2022-11-15T08:46:32.411Z,100580.81
2022-11-15T08:47:54.721Z,100587.81
2022-11-15T08:49:16.666Z,100584.31
2022-11-15T08:50:38.262Z,100581.47
2022-11-15T08:51:59.761Z,100582.28
2022-11-15T08:53:21.496Z,100584.56
2022-11-15T08:54:43.314Z,100580.84
2022-11-15T08:56:08.790Z,100583.16
2022-11-15T08:57:32.359Z,100588.09
2022-11-15T08:58:53.855Z,100579.69
2022-11-15T09:00:16.688Z,100585.66
2022-11-15T09:01:38.507Z,100590.78
2022-11-15T09:03:00.293Z,100591.22
2022-11-15T09:04:21.991Z,100580.56
2022-11-15T09:05:43.868Z,100591.22
2022-11-15T09:07:05.295Z,100585.69
2022-11-15T09:10:10.540Z,100584.22
2022-11-15T09:11:32.285Z,100592.63
2022-11-15T09:12:55.372Z,100584.00
2022-11-15T09:14:17.314Z,100574.34
2022-11-15T09:15:38.718Z,100576.19
2022-11-15T09:17:00.279Z,100576.00
2022-11-15T09:18:23.369Z,100586.66
2022-11-15T09:19:45.143Z,100579.28
2022-11-15T09:21:06.910Z,100578.50
2022-11-15T09:22:29.438Z,100586.09
2022-11-15T09:23:52.876Z,100590.19
2022-11-15T09:25:14.224Z,100582.81
2022-11-15T09:26:36.040Z,100575.44
2022-11-15T09:27:59.165Z,100576.88
2022-11-15T09:29:20.864Z,100582.66
2022-11-15T09:30:42.403Z,100579.78
2022-11-15T09:32:04.144Z,100582.06
2022-11-15T09:33:25.887Z,100580.84
2022-11-15T09:34:47.273Z,100579.44
2022-11-15T09:36:11.142Z,100593.00
2022-11-15T09:37:33.973Z,100578.22
2022-11-15T09:38:55.715Z,100577.81
2022-11-15T09:40:20.283Z,100574.56
2022-11-15T09:42:11.833Z,100569.66
2022-11-15T09:43:44.551Z,100574.56
2022-11-15T09:45:17.035Z,100578.69
2022-11-15T09:46:47.927Z,100573.75
2022-11-15T09:48:14.972Z,100578.53
2022-11-15T09:49:38.017Z,100572.56
2022-11-15T09:50:54.824Z,100575.66
2022-11-15T09:51:58.007Z,100581.81
2022-11-15T09:53:01.178Z,100582.22
2022-11-15T09:55:45.212Z,100579.75
2022-11-15T09:56:49.054Z,100588.19
2022-11-15T09:58:02.065Z,100601.34
2022-11-15T09:59:22.934Z,100585.75
2022-11-15T10:00:50.039Z,100585.75
2022-11-15T10:02:04.122Z,100585.16
2022-11-15T10:03:13.645Z,100584.97
2022-11-15T10:04:17.662Z,100590.72
2022-11-15T10:05:26.351Z,100597.47
2022-11-15T10:06:30.257Z,100597.69
2022-11-15T10:07:41.711Z,100592.97
2022-11-15T10:08:56.062Z,100577.78
2022-11-15T10:10:08.881Z,100578.38
2022-11-15T10:12:40.880Z,100577.56
2022-11-15T10:13:47.868Z,100589.69
2022-11-15T10:14:59.006Z,100579.81
2022-11-15T10:16:12.038Z,100583.34
2022-11-15T10:17:44.570Z,100583.91
2022-11-15T10:18:59.716Z,100581.03
2022-11-15T10:20:14.387Z,100575.69
2022-11-15T10:21:19.244Z,100572.66
2022-11-15T10:22:30.196Z,100571.59
2022-11-15T10:23:33.157Z,100560.28
2022-11-15T10:24:40.536Z,100565.25
2022-11-15T10:25:45.795Z,100570.59
2022-11-15T10:26:48.834Z,100570.22
2022-11-15T10:28:02.471Z,100567.53
2022-11-15T10:29:05.819Z,100559.53
2022-11-15T10:30:14.782Z,100563.00
2022-11-15T10:31:42.492Z,100559.53
2022-11-15T10:32:48.080Z,100563.22
2022-11-15T10:33:51.545Z,100563.22
2022-11-15T10:34:53.832Z,100561.16
2022-11-15T10:36:22.609Z,100559.09
2022-11-15T10:37:34.674Z,100567.13
2022-11-15T10:38:54.381Z,100561.56
2022-11-15T10:40:06.646Z,100563.41
2022-11-15T10:41:09.296Z,100555.41
2022-11-15T10:42:20.074Z,100556.22
2022-11-15T10:43:23.031Z,100546.59
2022-11-15T10:44:27.721Z,100543.06
2022-11-15T10:45:33.824Z,100548.41
2022-11-15T10:46:46.717Z,100548.41
2022-11-15T10:47:50.750Z,100548.41
2022-11-15T10:48:53.977Z,100550.06
2022-11-15T10:50:03.306Z,100549.25
2022-11-15T10:51:23.395Z,100547.16
2022-11-15T10:52:26.292Z,100553.34
2022-11-15T10:53:34.438Z,100539.78
2022-11-15T10:54:40.356Z,100540.59
2022-11-15T10:55:49.214Z,100537.72
2022-11-15T10:56:54.267Z,100531.13
2022-11-15T10:58:01.682Z,100537.31
2022-11-15T10:59:03.943Z,100534.22
2022-11-15T11:00:28.000Z,100544.72
2022-11-15T11:01:32.536Z,100530.94
2022-11-15T11:02:38.866Z,100536.69
2022-11-15T11:03:43.056Z,100546.13
2022-11-15T11:04:52.378Z,100528.66
2022-11-15T11:06:06.626Z,100531.94
2022-11-15T11:07:22.987Z,100531.53
2022-11-15T11:08:27.085Z,100526.19
2022-11-15T11:09:34.016Z,100524.50
2022-11-15T11:10:51.173Z,100523.28
2022-11-15T11:11:55.346Z,100516.50
2022-11-15T11:13:14.256Z,100522.44
2022-11-15T11:14:24.066Z,100520.16
2022-11-15T11:15:30.628Z,100520.78
2022-11-15T11:16:46.706Z,100517.88
2022-11-15T11:18:00.087Z,100514.78
2022-11-15T11:19:12.699Z,100520.75
2022-11-15T11:20:22.876Z,100519.75
2022-11-15T11:21:36.981Z,100518.69
2022-11-15T11:22:55.090Z,100524.66
2022-11-15T11:24:05.994Z,100518.28
2022-11-15T11:25:24.991Z,100518.66
2022-11-15T11:26:42.981Z,100521.13
2022-11-15T11:27:57.632Z,100516.41
2022-11-15T11:29:08.772Z,100514.56
2022-11-15T11:30:17.458Z,100515.34
2022-11-15T11:31:31.792Z,100513.50
2022-11-15T11:33:12.145Z,100510.00
2022-11-15T11:34:32.338Z,100516.78
2022-11-15T11:35:43.331Z,100506.72
2022-11-15T11:36:54.988Z,100503.81
2022-11-15T11:38:16.222Z,100501.75
2022-11-15T11:39:30.673Z,100489.78
2022-11-15T11:40:39.655Z,100494.94
2022-11-15T11:41:53.963Z,100493.91
2022-11-15T11:43:02.536Z,100487.34
2022-11-15T11:44:26.923Z,100500.91
2022-11-15T11:45:58.991Z,100496.16
2022-11-15T11:47:02.677Z,100505.81
2022-11-15T11:48:23.027Z,100496.78
2022-11-15T11:49:33.154Z,100493.91
2022-11-15T11:50:40.054Z,100497.34
2022-11-15T11:51:47.868Z,100497.56
2022-11-15T11:53:03.738Z,100493.44
2022-11-15T11:54:14.822Z,100487.03
2022-11-15T11:55:22.758Z,100487.03
2022-11-15T11:56:29.940Z,100489.50
2022-11-15T11:57:43.672Z,100487.66
2022-11-15T11:58:48.822Z,100490.13
2022-11-15T11:59:58.635Z,100491.78
2022-11-15T12:01:18.075Z,100485.38
2022-11-15T12:02:30.106Z,100487.84
2022-11-15T12:03:43.027Z,100480.63
2022-11-15T12:04:52.007Z,100488.66
2022-11-15T12:05:58.811Z,100481.66
2022-11-15T12:07:04.708Z,100479.81
2022-11-15T12:08:26.839Z,100480.03
2022-11-15T12:09:36.044Z,100465.22
2022-11-15T12:10:40.881Z,100480.69
2022-11-15T12:11:54.040Z,100465.59
2022-11-15T12:13:02.647Z,100468.28
2022-11-15T12:14:12.691Z,100461.91
2022-11-15T12:15:20.489Z,100464.16
2022-11-15T12:16:28.673Z,100477.31
2022-11-15T12:17:33.799Z,100478.75
2022-11-15T12:18:39.440Z,100477.50
2022-11-15T12:19:43.710Z,100477.06
2022-11-15T12:20:58.093Z,100474.78
2022-11-15T12:22:07.318Z,100473.31
2022-11-15T12:23:15.146Z,100474.13
2022-11-15T12:24:25.999Z,100474.69
2022-11-15T12:25:34.985Z,100467.88
2022-11-15T12:26:43.779Z,100463.50
2022-11-15T12:27:51.671Z,100459.34
2022-11-15T12:29:07.522Z,100465.91
2022-11-15T12:30:16.166Z,100472.47
2022-11-15T12:31:24.506Z,100463.81
2022-11-15T12:32:31.682Z,100462.53
2022-11-15T12:33:39.322Z,100471.78
2022-11-15T12:34:44.776Z,100463.53
2022-11-15T12:36:00.569Z,100460.63
2022-11-15T12:37:24.214Z,100461.47
2022-11-15T12:38:59.645Z,100456.09
2022-11-15T12:40:19.279Z,100460.63
2022-11-15T12:41:24.098Z,100457.13
2022-11-15T12:42:44.384Z,100456.31
2022-11-15T12:43:48.384Z,100455.50
2022-11-15T12:45:01.301Z,100460.84
2022-11-15T12:46:06.527Z,100444.63
2022-11-15T12:47:25.748Z,100456.31
2022-11-15T12:48:56.304Z,100454.44
2022-11-15T12:49:59.525Z,100449.91
2022-11-15T12:51:01.988Z,100449.69
2022-11-15T12:52:10.571Z,100450.53
2022-11-15T12:53:29.474Z,100442.88
2022-11-15T12:55:11.886Z,100452.31
2022-11-15T12:56:25.088Z,100443.03
2022-11-15T12:57:44.437Z,100441.75
2022-11-15T12:58:50.596Z,100443.19
2022-11-15T12:59:55.992Z,100436.56
2022-11-15T13:00:59.090Z,100444.97
2022-11-15T13:02:01.602Z,100444.31
2022-11-15T13:03:25.962Z,100436.22
2022-11-15T13:04:31.298Z,100439.06
2022-11-15T13:06:01.907Z,100431.75
2022-11-15T13:07:08.557Z,100438.31
2022-11-15T13:08:30.927Z,100433.53
2022-11-15T13:09:53.364Z,100431.25
2022-11-15T13:10:56.382Z,100433.69
2022-11-15T13:12:02.686Z,100430.78
2022-11-15T13:13:08.448Z,100432.03
2022-11-15T13:14:43.058Z,100431.81
2022-11-15T13:15:57.360Z,100428.78
2022-11-15T13:16:59.909Z,100429.81
2022-11-15T13:18:31.124Z,100414.16
2022-11-15T13:19:34.504Z,100411.72
2022-11-15T13:20:37.554Z,100408.22
2022-11-15T13:22:20.173Z,100413.34
2022-11-15T13:23:24.301Z,100416.63
2022-11-15T13:24:27.515Z,100414.53
2022-11-15T13:25:56.666Z,100415.94
2022-11-15T13:27:01.291Z,100414.91
2022-11-15T13:28:11.762Z,100409.09
2022-11-15T13:29:19.682Z,100414.00
2022-11-15T13:30:23.274Z,100415.66
2022-11-15T13:31:29.879Z,100413.56
2022-11-15T13:32:33.057Z,100413.34
2022-11-15T13:33:38.843Z,100419.53
2022-11-15T13:34:52.371Z,100416.84
2022-11-15T13:35:58.848Z,100404.25
2022-11-15T13:37:02.083Z,100414.75
2022-11-15T13:38:05.894Z,100414.75
2022-11-15T13:39:25.380Z,100399.28
2022-11-15T13:40:31.416Z,100400.06
2022-11-15T13:41:35.985Z,100406.25
2022-11-15T13:42:43.097Z,100390.41
2022-11-15T13:43:49.389Z,100391.22
2022-11-15T13:45:00.348Z,100392.25
2022-11-15T13:46:13.004Z,100388.16
2022-11-15T13:47:17.536Z,100385.72
2022-11-15T13:48:19.530Z,100384.88
2022-11-15T13:49:31.817Z,100380.81
2022-11-15T13:50:37.893Z,100382.88
2022-11-15T13:51:46.607Z,100373.78
2022-11-15T13:52:50.695Z,100380.81
2022-11-15T13:53:57.728Z,100379.75
2022-11-15T13:55:05.141Z,100385.13
2022-11-15T13:56:08.790Z,100377.06
2022-11-15T13:57:15.734Z,100374.38
2022-11-15T13:58:24.160Z,100376.00
2022-11-15T13:59:28.318Z,100367.97
2022-11-15T14:00:43.663Z,100365.28
2022-11-15T14:01:46.881Z,100364.25
2022-11-15T14:02:50.255Z,100364.25
2022-11-15T14:03:58.241Z,100367.75
2022-11-15T14:05:07.823Z,100373.94
2022-11-15T14:06:13.108Z,100376.38
2022-11-15T14:07:19.860Z,100376.97
2022-11-15T14:08:25.255Z,100384.81
2022-11-15T14:09:37.984Z,100386.47
2022-11-15T14:10:40.942Z,100377.34
2022-11-15T14:11:53.130Z,100379.56
2022-11-15T14:12:56.427Z,100386.94
2022-11-15T14:14:16.995Z,100386.06
2022-11-15T14:15:30.396Z,100394.25
2022-11-15T14:16:36.336Z,100390.03
2022-11-15T14:17:45.725Z,100392.53
2022-11-15T14:18:55.267Z,100379.91
2022-11-15T14:19:58.100Z,100375.59
2022-11-15T14:21:08.621Z,100382.81
2022-11-15T14:22:18.293Z,100366.59
2022-11-15T14:23:28.507Z,100373.22
2022-11-15T14:24:32.651Z,100366.91
2022-11-15T14:25:37.221Z,100364.69
2022-11-15T14:26:39.272Z,100358.13
2022-11-15T14:27:43.263Z,100358.56
2022-11-15T14:28:46.288Z,100357.16
2022-11-15T14:29:51.256Z,100362.97
2022-11-15T14:30:56.757Z,100365.06
2022-11-15T14:32:14.448Z,100369.03
2022-11-15T14:33:23.656Z,100367.81
2022-11-15T14:34:26.725Z,100367.44
2022-11-15T14:35:29.749Z,100365.22
2022-11-15T14:36:31.890Z,100375.56
2022-11-15T14:37:36.084Z,100371.50
2022-11-15T14:38:39.207Z,100367.63
2022-11-15T14:39:42.281Z,100370.97
2022-11-15T14:40:46.050Z,100371.44
2022-11-15T14:41:48.038Z,100375.38
2022-11-15T14:42:51.941Z,100369.06
2022-11-15T14:43:54.222Z,100377.28
2022-11-15T14:44:58.807Z,100375.91
2022-11-15T14:46:01.337Z,100381.69
2022-11-15T14:47:04.368Z,100381.94
2022-11-15T14:48:07.877Z,100381.31
2022-11-15T14:49:10.989Z,100371.06
2022-11-15T14:50:14.133Z,100377.66
2022-11-15T14:51:19.710Z,100367.63
2022-11-15T14:52:32.275Z,100374.22
2022-11-15T14:53:36.159Z,100369.53
2022-11-15T14:54:38.231Z,100362.97
2022-11-15T14:55:41.551Z,100366.09
2022-11-15T14:56:43.893Z,100366.78
2022-11-15T14:57:50.241Z,100362.88
2022-11-15T14:58:56.729Z,100362.47
2022-11-15T15:00:01.695Z,100351.41
2022-11-15T15:01:21.440Z,100350.66